.
WxDataArchive / Data Records for 2006-05-19
2006-05-18 May 2006 2006-05-20

Data Records for Friday, 19 May 2006

Time	Temp	Chill	HIndex	Humid	Dewpt	 Wind 	HiWind	WindDir	Rain 	Barom 
-----	----	-----	------	-----	-----	------	------	-------	-----	----- 
00:00	45.7	45.7	45.7	83	40.8	1	5	270	0.00	29.634 
00:05	45.7	45.7	45.7	84	41.1	1	5	270	0.00	29.634 
00:10	45.7	45.7	45.7	84	41.1	2	5	270	0.00	29.634 
00:15	45.7	45.7	45.7	84	41.1	2	5	248	0.00	29.630 
00:20	45.7	45.7	45.7	84	41.1	1	4	270	0.00	29.630 
00:25	45.7	45.7	45.7	84	41.1	1	3	270	0.00	29.630 
00:30	45.7	45.7	45.7	84	41.1	2	4	270	0.00	29.627 
00:35	45.7	45.7	45.7	84	41.1	2	5	292	0.00	29.627 
00:40	45.7	45.7	45.7	85	41.5	2	5	248	0.00	29.627 
00:45	45.7	45.7	45.7	85	41.5	2	4	270	0.00	29.623 
00:50	45.5	45.5	45.5	85	41.3	2	4	248	0.00	29.623 
00:55	45.5	45.5	45.5	86	41.6	2	4	248	0.01	29.623 
01:00	45.5	45.5	45.5	87	41.9	2	3	270	0.00	29.616 
01:05	45.4	45.4	45.4	87	41.8	2	4	270	0.00	29.616 
01:10	45.4	45.4	45.4	87	41.8	2	4	270	0.00	29.616 
01:15	45.4	45.4	45.4	87	41.8	2	5	270	0.01	29.616 
01:20	45.4	45.4	45.4	88	42.1	2	4	270	0.00	29.616 
01:25	45.4	45.4	45.4	88	42.1	2	3	270	0.00	29.616 
01:30	45.4	45.4	45.4	88	42.1	2	6	270	0.00	29.617 
01:35	45.4	45.4	45.4	89	42.3	1	3	270	0.00	29.617 
01:40	45.4	45.4	45.4	88	42.1	2	4	270	0.00	29.617 
01:45	45.4	45.4	45.4	88	42.1	2	4	270	0.00	29.613 
01:50	45.4	45.4	45.4	88	42.1	2	4	248	0.01	29.613 
01:55	45.4	45.4	45.4	88	42.1	2	4	270	0.00	29.613 
02:00	45.4	45.4	45.4	88	42.1	2	3	248	0.00	29.610 
02:05	45.4	45.4	45.4	88	42.1	1	4	315	0.00	29.610 
02:10	45.5	45.5	45.5	88	42.2	2	3	292	0.00	29.610 
02:15	45.5	45.5	45.5	88	42.2	2	4	270	0.00	29.603 
02:20	45.5	45.5	45.5	88	42.2	1	4	292	0.00	29.603 
02:25	45.7	45.7	45.7	88	42.4	2	4	270	0.00	29.603 
02:30	45.7	45.7	45.7	87	42.1	2	4	248	0.00	29.603 
02:35	45.7	45.7	45.7	87	42.1	1	4	270	0.00	29.603 
02:40	45.7	45.7	45.7	87	42.1	2	4	292	0.00	29.603 
02:45	45.8	45.8	45.8	86	41.9	2	5	248	0.00	29.600 
02:50	46.0	46.0	46.0	86	42.0	2	6	292	0.00	29.600 
02:55	46.0	46.0	46.0	86	42.0	2	5	292	0.00	29.600 
03:00	46.0	46.0	46.0	86	42.0	1	2	270	0.00	29.598 
03:05	46.0	46.0	46.0	85	41.7	1	5	248	0.00	29.598 
03:10	46.1	46.1	46.1	85	41.8	1	5	248	0.00	29.598 
03:15	46.1	46.1	46.1	84	41.5	1	3	270	0.00	29.601 
03:20	46.2	46.2	46.2	84	41.6	1	3	248	0.00	29.601 
03:25	46.2	46.2	46.2	84	41.6	2	4	270	0.00	29.601 
03:30	46.4	46.4	46.4	84	41.8	1	3	315	0.00	29.601 
03:35	46.4	46.4	46.4	83	41.5	2	4	270	0.00	29.601 
03:40	46.5	46.5	46.5	82	41.3	2	4	315	0.00	29.601 
03:45	46.7	46.7	46.7	82	41.5	3	6	270	0.00	29.599 
03:50	46.7	46.7	46.7	82	41.5	2	5	270	0.00	29.599 
03:55	46.7	46.7	46.7	81	41.2	2	6	270	0.00	29.599 
04:00	46.7	46.7	46.7	81	41.2	1	3	315	0.00	29.599 
04:05	46.8	46.8	46.8	80	41.0	2	4	270	0.00	29.599 
04:10	46.8	46.8	46.8	79	40.6	2	5	315	0.00	29.599 
04:15	47.0	47.0	47.0	79	40.8	2	4	270	0.00	29.602 
04:20	47.0	47.0	47.0	79	40.8	2	5	270	0.00	29.602 
04:25	47.0	47.0	47.0	78	40.5	2	5	270	0.00	29.602 
04:30	47.0	47.0	47.0	78	40.5	2	6	270	0.00	29.603 
04:35	47.1	47.1	47.1	79	40.9	2	4	270	0.00	29.603 
04:40	47.0	47.0	47.0	78	40.5	1	3	315	0.00	29.603 
04:45	47.1	47.1	47.1	77	40.3	2	5	315	0.00	29.603 
04:50	47.3	47.3	47.3	77	40.5	2	5	270	0.00	29.603 
04:55	47.3	47.3	47.3	77	40.5	2	5	292	0.00	29.603 
05:00	47.3	47.3	47.3	77	40.5	2	5	270	0.00	29.605 
05:05	47.3	47.3	47.3	76	40.1	2	5	248	0.00	29.605 
05:10	47.3	47.3	47.3	76	40.1	2	4	270	0.00	29.605 
05:15	47.4	47.4	47.4	77	40.6	2	4	270	0.00	29.603 
05:20	47.4	47.4	47.4	76	40.2	2	3	270	0.00	29.603 
05:25	47.4	47.4	47.4	76	40.2	2	4	248	0.00	29.603 
05:30	47.6	47.6	47.6	75	40.1	2	6	270	0.00	29.608 
05:35	47.6	47.6	47.6	75	40.1	2	5	270	0.00	29.608 
05:40	47.6	47.6	47.6	74	39.7	2	5	292	0.00	29.608 
05:45	47.7	47.7	47.7	73	39.5	2	5	292	0.00	29.608 
05:50	47.9	47.9	47.9	73	39.7	2	4	270	0.00	29.608 
05:55	47.9	47.9	47.9	73	39.7	2	6	248	0.00	29.608 
06:00	47.9	47.9	47.9	73	39.7	2	4	292	0.00	29.606 
06:05	47.7	47.7	47.7	72	39.1	2	3	270	0.00	29.606 
06:10	47.7	47.7	47.7	72	39.1	2	5	292	0.00	29.606 
06:15	47.7	47.7	47.7	72	39.1	2	7	248	0.00	29.608 
06:20	47.6	47.6	47.6	72	39.0	2	5	270	0.00	29.608 
06:25	47.4	47.4	47.4	72	38.8	2	6	270	0.00	29.608 
06:30	47.1	47.1	47.1	72	38.5	2	5	270	0.00	29.615 
06:35	47.0	47.0	47.0	72	38.4	3	6	270	0.00	29.615 
06:40	46.8	46.8	46.8	73	38.6	1	3	248	0.00	29.615 
06:45	46.7	46.7	46.7	73	38.5	2	4	292	0.00	29.625 
06:50	46.5	46.5	46.5	73	38.3	2	5	292	0.00	29.625 
06:55	46.7	46.7	46.7	73	38.5	2	4	270	0.00	29.625 
07:00	46.7	46.7	46.7	73	38.5	2	5	292	0.00	29.629 
07:05	46.7	46.7	46.7	73	38.5	2	4	315	0.00	29.629 
07:10	46.8	46.8	46.8	73	38.6	1	3	292	0.00	29.629 
07:15	47.0	47.0	47.0	73	38.8	2	4	292	0.00	29.635 
07:20	47.1	47.1	47.1	72	38.5	2	4	270	0.00	29.635 
07:25	47.3	47.3	47.3	72	38.7	2	4	270	0.00	29.635 
07:30	47.4	47.4	47.4	72	38.8	2	4	248	0.00	29.635 
07:35	47.7	47.7	47.7	71	38.8	2	4	270	0.00	29.635 
07:40	48.0	48.0	48.0	70	38.7	2	5	315	0.00	29.635 
07:45	48.5	48.5	48.5	70	39.2	2	4	315	0.00	29.644 
07:50	48.8	48.8	48.8	69	39.1	2	7	270	0.00	29.644 
07:55	48.9	48.9	48.9	68	38.8	3	6	270	0.00	29.644 
08:00	49.1	49.1	49.1	67	38.6	2	6	270	0.00	29.649 
08:05	49.4	49.4	49.4	68	39.3	2	6	248	0.00	29.649 
08:10	49.4	49.4	49.4	66	38.5	3	5	270	0.00	29.649 
08:15	49.5	49.5	49.5	66	38.6	3	7	270	0.00	29.651 
08:20	49.9	49.9	49.9	67	39.4	2	5	270	0.00	29.651 
08:25	50.2	50.2	50.2	66	39.3	3	6	315	0.00	29.651 
08:30	50.2	50.2	50.2	65	38.9	3	10	292	0.00	29.656 
08:35	50.7	50.7	50.7	65	39.4	2	5	292	0.00	29.656 
08:40	51.1	51.1	51.1	65	39.7	3	7	270	0.00	29.656 
08:45	51.3	51.3	51.3	63	39.1	4	13	270	0.00	29.662 
08:50	51.6	51.6	51.6	64	39.8	3	7	270	0.00	29.662 
08:55	51.9	51.9	51.9	64	40.1	3	7	292	0.00	29.662 
09:00	51.9	51.9	51.9	62	39.3	4	10	270	0.00	29.664 
09:05	52.5	52.5	52.5	64	40.7	2	5	315	0.00	29.664 
09:10	53.1	53.1	53.1	63	40.8	2	5	292	0.00	29.664 
09:15	53.1	53.1	53.1	61	40.0	3	6	270	0.00	29.665 
09:20	53.5	53.5	53.5	63	41.2	3	6	270	0.00	29.665 
09:25	53.6	53.6	53.6	61	40.5	4	10	270	0.00	29.665 
09:30	53.8	53.8	53.8	62	41.1	3	6	292	0.00	29.666 
09:35	53.9	53.9	53.9	62	41.2	3	8	270	0.00	29.666 
09:40	53.9	53.9	53.9	60	40.3	4	13	270	0.00	29.666 
09:45	54.2	54.2	54.2	61	41.0	3	7	292	0.00	29.671 
09:50	54.5	54.5	54.5	61	41.3	4	9	270	0.00	29.671 
09:55	54.4	54.4	54.4	60	40.8	3	6	315	0.00	29.671 
10:00	54.5	54.5	54.5	59	40.5	3	7	315	0.00	29.666 
10:05	54.8	54.8	54.8	60	41.2	2	7	292	0.00	29.666 
10:10	55.6	55.6	55.6	62	42.8	2	5	270	0.00	29.666 
10:15	55.7	55.7	55.7	60	42.0	4	10	270	0.00	29.674 
10:20	55.9	55.9	55.9	58	41.3	3	6	315	0.00	29.674 
10:25	56.0	56.0	56.0	57	41.0	3	7	292	0.00	29.674 
10:30	56.5	56.5	56.5	60	42.8	3	6	270	0.00	29.676 
10:35	56.7	56.7	56.7	58	42.1	3	5	270	0.00	29.676 
10:40	56.7	56.7	56.7	58	42.1	3	5	292	0.00	29.676 
10:45	56.9	56.9	56.9	56	41.4	3	6	315	0.00	29.674 
10:50	57.2	57.2	57.2	57	42.1	3	6	270	0.00	29.674 
10:55	57.5	57.5	57.5	58	42.8	3	7	270	0.00	29.674 
11:00	57.5	57.5	57.5	58	42.8	3	7	270	0.00	29.672 
11:05	58.0	58.0	58.0	54	41.4	3	6	292	0.00	29.672 
11:10	58.1	58.1	58.1	57	42.9	4	11	270	0.00	29.672 
11:15	58.4	58.4	58.4	55	42.3	4	7	270	0.00	29.672 
11:20	58.4	58.4	58.4	53	41.3	4	11	292	0.00	29.672 
11:25	58.9	58.9	58.9	58	44.1	2	5	270	0.00	29.672 
11:30	59.0	59.0	59.0	54	42.4	3	9	270	0.00	29.668 
11:35	58.9	58.9	58.9	55	42.8	3	6	292	0.00	29.668 
11:40	59.3	59.3	59.3	55	43.1	3	5	270	0.00	29.668 
11:45	59.0	59.0	59.0	53	41.9	4	7	270	0.00	29.674 
11:50	59.0	59.0	59.0	55	42.9	3	7	270	0.00	29.674 
11:55	59.0	59.0	59.0	54	42.4	3	6	270	0.00	29.674 
12:00	59.3	59.3	59.3	54	42.7	3	6	315	0.00	29.676 
12:05	59.6	59.6	59.6	54	42.9	3	9	292	0.00	29.676 
12:10	59.5	59.5	59.5	55	43.3	3	9	292	0.00	29.676 
12:15	58.7	58.7	58.7	56	43.0	3	9	315	0.00	29.679 
12:20	59.0	59.0	59.0	56	43.3	2	4	315	0.00	29.679 
12:25	59.8	59.8	59.8	58	45.0	2	4	292	0.00	29.679 
12:30	59.3	59.3	59.3	54	42.7	4	9	315	0.00	29.685 
12:35	59.6	59.6	59.6	55	43.4	3	11	270	0.00	29.685 
12:40	59.9	59.9	59.9	54	43.2	4	7	292	0.00	29.685 
12:45	60.7	60.7	60.7	55	44.4	2	6	292	0.00	29.685 
12:50	61.2	61.2	61.2	52	43.4	3	7	270	0.00	29.685 
12:55	61.5	61.5	61.5	52	43.7	3	7	292	0.00	29.685 
13:00	62.1	62.1	62.1	53	44.8	3	9	270	0.00	29.685 
13:05	62.3	62.3	62.3	50	43.4	3	5	315	0.00	29.685 
13:10	61.8	61.8	61.8	52	44.0	3	5	315	0.00	29.685 
13:15	61.6	61.6	61.6	53	44.3	2	4	315	0.00	29.689 
13:20	61.6	61.6	61.6	56	45.7	4	7	270	0.00	29.689 
13:25	62.3	62.3	62.3	55	45.9	3	7	270	0.00	29.689 
13:30	62.4	62.4	62.4	49	43.0	4	7	270	0.00	29.690 
13:35	62.1	62.1	62.1	49	42.7	4	10	270	0.00	29.690 
13:40	62.3	62.3	62.3	51	43.9	4	6	270	0.00	29.690 
13:45	62.3	62.3	62.3	50	43.4	4	11	270	0.00	29.692 
13:50	62.3	62.3	62.3	51	43.9	4	8	315	0.00	29.692 
13:55	62.6	62.6	62.6	47	42.1	3	7	270	0.00	29.692 
14:00	62.3	62.3	62.3	46	41.3	4	12	292	0.00	29.691 
14:05	62.4	62.4	62.4	46	41.3	3	7	315	0.00	29.691 
14:10	62.3	62.3	62.3	49	42.9	3	5	315	0.00	29.691 
14:15	63.1	63.1	63.1	50	44.2	3	7	270	0.00	29.687 
14:20	63.7	63.7	63.7	49	44.2	3	6	292	0.00	29.687 
14:25	63.7	63.7	63.7	50	44.7	3	6	248	0.00	29.687 
14:30	64.0	64.0	64.0	44	41.6	3	8	270	0.00	29.682 
14:35	63.7	63.7	63.7	47	43.1	3	7	270	0.00	29.682 
14:40	63.4	63.4	63.4	47	42.8	4	10	315	0.00	29.682 
14:45	63.2	63.2	63.2	46	42.1	4	9	270	0.00	29.680 
14:50	63.7	63.7	63.7	49	44.2	2	5	292	0.00	29.680 
14:55	64.0	64.0	64.0	46	42.8	3	10	292	0.00	29.680 
15:00	63.1	63.1	63.1	45	41.4	2	5	292	0.00	29.684 
15:05	63.1	63.1	63.1	44	40.8	3	12	270	0.00	29.684 
15:10	63.1	63.1	63.1	44	40.8	3	5	270	0.00	29.684 
15:15	63.2	63.2	63.2	45	41.5	3	12	270	0.00	29.677 
15:20	62.7	62.7	62.7	47	42.2	3	7	270	0.00	29.677 
15:25	62.7	62.7	62.7	45	41.0	3	7	315	0.00	29.677 
15:30	63.4	63.4	63.4	42	39.9	3	6	270	0.00	29.681 
15:35	63.7	63.7	63.7	43	40.8	3	7	292	0.00	29.681 
15:40	63.4	63.4	63.4	42	39.9	3	9	292	0.00	29.681 
15:45	62.6	62.6	62.6	44	40.4	3	7	248	0.00	29.681 
15:50	62.3	62.3	62.3	44	40.1	3	6	270	0.00	29.681 
15:55	62.3	62.3	62.3	45	40.7	3	5	270	0.00	29.681 
16:00	63.2	63.2	63.2	44	40.9	3	7	270	0.00	29.686 
16:05	63.5	63.5	63.5	41	39.4	4	9	270	0.00	29.686 
16:10	63.5	63.5	63.5	39	38.1	4	7	270	0.00	29.686 
16:15	63.5	63.5	63.5	41	39.4	2	4	315	0.00	29.680 
16:20	63.2	63.2	63.2	41	39.1	2	6	248	0.00	29.680 
16:25	63.4	63.4	63.4	42	39.9	2	5	292	0.00	29.680 
16:30	63.7	63.7	63.7	39	38.3	3	6	270	0.00	29.675 
16:35	63.9	63.9	63.9	40	39.1	3	6	270	0.00	29.675 
16:40	64.2	64.2	64.2	40	39.4	3	6	270	0.00	29.675 
16:45	63.7	63.7	63.7	42	40.2	2	4	292	0.00	29.677 
16:50	63.7	63.7	63.7	42	40.2	3	10	270	0.00	29.677 
16:55	63.5	63.5	63.5	40	38.7	3	6	315	0.00	29.677 
17:00	63.4	63.4	63.4	43	40.5	3	7	270	0.00	29.684 
17:05	63.2	63.2	63.2	39	37.8	3	6	315	0.00	29.684 
17:10	63.2	63.2	63.2	41	39.1	3	5	292	0.00	29.684 
17:15	63.2	63.2	63.2	39	37.8	3	9	270	0.00	29.687 
17:20	62.6	62.6	62.6	41	38.6	3	5	292	0.00	29.687 
17:25	61.6	61.6	61.6	39	36.4	3	6	270	0.00	29.687 
17:30	61.2	61.2	61.2	39	36.0	3	8	270	0.00	29.693 
17:35	60.5	60.5	60.5	40	36.1	3	6	270	0.00	29.693 
17:40	60.5	60.5	60.5	40	36.1	3	6	315	0.00	29.693 
17:45	60.5	60.5	60.5	40	36.1	2	5	270	0.00	29.700 
17:50	60.1	60.1	60.1	40	35.7	3	10	292	0.00	29.700 
17:55	59.6	59.6	59.6	42	36.5	3	7	315	0.00	29.700 
18:00	59.3	59.3	59.3	42	36.2	2	5	270	0.00	29.705 
18:05	59.3	59.3	59.3	43	36.8	2	4	338	0.00	29.705 
18:10	59.3	59.3	59.3	42	36.2	2	5	292	0.00	29.705 
18:15	59.3	59.3	59.3	43	36.8	2	5	292	0.00	29.706 
18:20	59.2	59.2	59.2	43	36.7	3	5	292	0.00	29.706 
18:25	59.0	59.0	59.0	46	38.2	2	5	270	0.00	29.706 
18:30	58.9	58.9	58.9	42	35.9	2	5	292	0.00	29.706 
18:35	58.6	58.6	58.6	44	36.8	3	6	315	0.00	29.706 
18:40	58.3	58.3	58.3	44	36.5	3	7	292	0.00	29.706 
18:45	58.1	58.1	58.1	44	36.3	3	6	315	0.00	29.714 
18:50	58.1	58.1	58.1	42	35.1	3	6	292	0.00	29.714 
18:55	58.0	58.0	58.0	45	36.8	2	5	270	0.00	29.714 
19:00	57.8	57.8	57.8	44	36.0	2	7	292	0.00	29.718 
19:05	57.8	57.8	57.8	46	37.2	1	3	315	0.00	29.718 
19:10	57.6	57.6	57.6	44	35.8	2	5	292	0.00	29.718 
19:15	58.0	58.0	58.0	45	36.8	2	5	315	0.00	29.722 
19:20	58.4	58.4	58.4	44	36.6	2	6	270	0.00	29.722 
19:25	58.0	58.0	58.0	45	36.8	2	6	315	0.00	29.722 
19:30	57.8	57.8	57.8	45	36.6	2	5	292	0.00	29.724 
19:35	57.6	57.6	57.6	44	35.8	2	5	270	0.00	29.724 
19:40	57.2	57.2	57.2	44	35.5	2	5	292	0.00	29.724 
19:45	56.5	56.5	56.5	46	36.0	2	6	315	0.00	29.728 
19:50	56.3	56.3	56.3	46	35.8	2	5	315	0.00	29.728 
19:55	56.2	56.2	56.2	47	36.2	2	6	292	0.00	29.728 
20:00	56.3	56.3	56.3	46	35.8	2	5	292	0.00	29.736 
20:05	56.5	56.5	56.5	48	37.0	2	4	292	0.00	29.736 
20:10	56.6	56.6	56.6	48	37.1	1	4	315	0.00	29.736 
20:15	56.3	56.3	56.3	48	36.9	1	3	315	0.00	29.737 
20:20	56.2	56.2	56.2	50	37.8	1	3	315	0.00	29.737 
20:25	55.9	55.9	55.9	46	35.4	2	5	270	0.00	29.737 
20:30	55.9	55.9	55.9	47	36.0	3	9	270	0.00	29.738 
20:35	55.6	55.6	55.6	48	36.2	1	3	315	0.00	29.738 
20:40	55.4	55.4	55.4	50	37.1	1	4	292	0.00	29.738 
20:45	55.3	55.3	55.3	50	37.0	1	2	248	0.00	29.746 
20:50	55.1	55.1	55.1	51	37.3	1	3	315	0.00	29.746 
20:55	55.0	55.0	55.0	50	36.7	1	3	315	0.00	29.746 
21:00	54.8	54.8	54.8	51	37.0	1	3	315	0.00	29.751 
21:05	54.8	54.8	54.8	50	36.5	1	4	315	0.00	29.751 
21:10	54.5	54.5	54.5	51	36.7	1	4	315	0.00	29.751 
21:15	54.5	54.5	54.5	50	36.2	2	4	292	0.00	29.751 
21:20	54.4	54.4	54.4	51	36.7	1	3	292	0.00	29.751 
21:25	54.1	54.1	54.1	52	36.9	1	3	292	0.00	29.751 
21:30	53.9	53.9	53.9	52	36.7	1	3	315	0.00	29.754 
21:35	53.6	53.6	53.6	54	37.4	0	2	315	0.00	29.754 
21:40	53.5	53.5	53.5	54	37.3	0	2	315	0.00	29.754 
21:45	53.3	53.3	53.3	54	37.1	1	2	315	0.00	29.757 
21:50	53.2	53.2	53.2	55	37.5	1	2	315	0.00	29.757 
21:55	52.9	52.9	52.9	56	37.6	1	3	248	0.00	29.757 
22:00	52.6	52.6	52.6	57	37.8	0	2	248	0.00	29.760 
22:05	52.5	52.5	52.5	58	38.2	1	3	248	0.00	29.760 
22:10	52.3	52.3	52.3	58	38.0	1	3	270	0.00	29.760 
22:15	52.2	52.2	52.2	59	38.3	1	3	248	0.00	29.766 
22:20	52.0	52.0	52.0	59	38.1	0	3	248	0.00	29.766 
22:25	51.9	51.9	51.9	60	38.5	1	3	248	0.00	29.766 
22:30	51.7	51.7	51.7	61	38.7	1	3	248	0.00	29.771 
22:35	51.6	51.6	51.6	61	38.6	0	1	248	0.00	29.771 
22:40	51.3	51.3	51.3	62	38.7	0	1	248	0.00	29.771 
22:45	51.0	51.0	51.0	62	38.4	0	1	248	0.00	29.777 
22:50	50.5	50.5	50.5	63	38.4	0	2	248	0.00	29.777 
22:55	50.5	50.5	50.5	64	38.8	0	2	248	0.00	29.777 
23:00	50.5	50.5	50.5	64	38.8	1	2	248	0.00	29.783 
23:05	50.4	50.4	50.4	65	39.1	0	2	248	0.00	29.783 
23:10	50.2	50.2	50.2	65	38.9	0	1	248	0.00	29.783 
23:15	49.9	49.9	49.9	66	39.0	0	1	248	0.00	29.783 
23:20	49.8	49.8	49.8	66	38.9	1	3	248	0.00	29.783 
23:25	49.8	49.8	49.8	67	39.3	0	2	248	0.00	29.783 
23:30	49.6	49.6	49.6	67	39.1	1	3	248	0.00	29.785 
23:35	49.5	49.5	49.5	68	39.4	0	2	270	0.00	29.785 
23:40	49.4	49.4	49.4	68	39.3	0	1	270	0.00	29.785 
23:45	49.2	49.2	49.2	68	39.1	0	2	270	0.00	29.785 
23:50	49.1	49.1	49.1	68	39.0	1	3	270	0.00	29.785 
23:55	49.1	49.1	49.1	68	39.0	1	2	270	0.00	29.785 

CoCoRaHS
IN-AL-39
A2 Web Hosting
Creative Commons License
GoDaddy
Look for:

loaded 2017-10-16 18:30:15 • last modified 2010-11-18 10:43:29
Privacy PolicyDisclaimer
• wx.awcolley.com is powered by PmWiki v.2002016 •
• all content (unless otherwise noted) © 2017 A W Colley